Time;durP1;ratioP1;P1;durP2;ratioP2;P2;SDS_P1;SDS_P2;PMS_P1;PMS_P2;Temp;Humidity;BMP_temperature;BMP_pressure;BME280_temperature;BME280_humidity;BME280_pressure;Samples;Min_cycle;Max_cycle;Signal;HPM_P1;HPM_P2
2022/02/03 00:02:41;;;;;;;11.00;3.22;;;154.30;1740.80;;;;;;5102948;28;20024;-61
2022/02/03 00:05:15;;;;;;;10.93;3.10;;;154.30;1766.40;;;;;;5109230;28;20031;-60
2022/02/03 00:16:28;;;;;;;12.70;4.75;;;154.30;1766.40;;;;;;5102881;28;20373;-60
2022/02/03 00:25:05;;;;;;;8.57;4.20;;;154.20;1766.40;;;;;;5100514;28;20069;-60
2022/02/03 00:27:54;;;;;;;16.02;5.30;;;154.10;1766.40;;;;;;5103800;28;20094;-60
2022/02/03 00:30:31;;;;;;;14.40;5.63;;;154.20;1766.40;;;;;;5103955;28;20040;-60
2022/02/03 00:49:11;;;;;;;9.32;3.70;;;154.30;1740.80;;;;;;5114126;28;20022;-61
2022/02/03 00:51:42;;;;;;;10.75;3.45;;;154.30;1740.80;;;;;;5104878;28;20062;-60
2022/02/03 00:54:10;;;;;;;9.50;3.88;;;154.30;1740.80;;;;;;5101976;28;20039;-63
2022/02/03 00:56:53;;;;;;;8.93;3.42;;;154.40;1740.80;;;;;;5100304;28;20028;-63
2022/02/03 00:59:35;;;;;;;10.70;3.75;;;154.40;1740.80;;;;;;5107044;28;20119;-61
2022/02/03 01:02:11;;;;;;;14.93;3.80;;;154.40;1740.80;;;;;;5101513;28;20032;-61
2022/02/03 01:04:39;;;;;;;18.20;4.38;;;154.40;1715.20;;;;;;5100202;28;20408;-60
2022/02/03 01:07:18;;;;;;;10.82;4.32;;;154.40;1715.20;;;;;;5102546;28;20023;-60
2022/02/03 01:10:01;;;;;;;10.48;3.78;;;154.40;1740.80;;;;;;5096617;28;20042;-62
2022/02/03 01:12:55;;;;;;;11.75;3.75;;;154.40;1715.20;;;;;;5110018;28;20170;-61
2022/02/03 01:45:20;;;;;;;10.50;3.95;;;154.10;1766.40;;;;;;5105522;28;20027;-61
2022/02/03 01:53:40;;;;;;;18.98;6.13;;;154.10;1740.80;;;;;;5117563;28;20087;-63
2022/02/03 01:56:14;;;;;;;12.20;5.25;;;154.20;1740.80;;;;;;5117194;28;20024;-62
2022/02/03 01:58:56;;;;;;;16.15;5.30;;;154.10;1740.80;;;;;;5117012;28;20023;-60
2022/02/03 02:01:28;;;;;;;13.30;5.03;;;154.20;1766.40;;;;;;5116887;28;20454;-61
2022/02/03 02:04:22;;;;;;;15.02;5.20;;;154.20;1766.40;;;;;;5117069;28;20095;-60
2022/02/03 02:07:24;;;;;;;17.02;5.28;;;154.20;1740.80;;;;;;5117289;28;20050;-60
2022/02/03 02:37:37;;;;;;;11.45;4.80;;;154.00;1740.80;;;;;;5033830;28;20076;-60
2022/02/03 02:43:57;;;;;;;11.77;4.25;;;154.00;1740.80;;;;;;5033661;28;20369;-60
2022/02/03 02:46:34;;;;;;;13.85;4.20;;;154.10;1740.80;;;;;;5013636;28;20646;-59
2022/02/03 02:49:13;;;;;;;8.35;3.70;;;154.00;1740.80;;;;;;5013625;28;20474;-61
2022/02/03 02:52:07;;;;;;;9.25;4.40;;;154.00;1740.80;;;;;;5013732;28;20555;-59
2022/02/03 03:29:16;;;;;;;11.75;4.13;;;153.80;1766.40;;;;;;5115300;28;20076;-61
2022/02/03 03:37:46;;;;;;;13.07;5.53;;;153.60;1766.40;;;;;;5115443;28;20133;-61
2022/02/03 03:40:15;;;;;;;;;;;153.60;1792.00;;;;;;5114817;28;20552;-60
2022/02/03 03:43:18;;;;;;;11.27;4.55;;;153.60;1766.40;;;;;;5115174;28;19904;-61
2022/02/03 03:45:51;;;;;;;8.18;3.85;;;153.60;1766.40;;;;;;5012490;28;20045;-61
2022/02/03 03:48:28;;;;;;;11.02;3.83;;;128.90;1766.40;;;;;;5012440;28;20022;-61
2022/02/03 03:51:07;;;;;;;9.95;3.60;;;128.90;1792.00;;;;;;5012440;28;20033;-62
2022/02/03 03:53:59;;;;;;;11.02;3.65;;;153.60;1766.40;;;;;;5012512;28;20030;-61
2022/02/03 03:56:56;;;;;;;7.05;2.90;;;153.60;1766.40;;;;;;5012308;28;20034;-60
2022/02/03 04:30:39;;;;;;;44.20;5.15;;;153.60;1766.40;;;;;;5114458;28;20159;-63
2022/02/03 04:33:43;;;;;;;18.00;3.85;;;153.70;1792.00;;;;;;5112407;28;20073;-61
2022/02/03 04:40:01;;;;;;;10.70;2.97;;;153.60;1740.80;;;;;;5012022;28;20080;-61
2022/02/03 04:43:24;;;;;;;10.18;3.85;;;128.90;1792.00;;;;;;5011370;28;20037;-61
2022/02/03 05:04:41;;;;;;;11.80;5.10;;;128.70;1766.40;;;;;;5015736;28;20100;-60
2022/02/03 05:17:48;;;;;;;11.95;6.18;;;128.60;1766.40;;;;;;5118052;28;20062;-60
2022/02/03 05:50:41;;;;;;;23.27;10.98;;;128.00;1792.00;;;;;;5014745;28;20034;-59
2022/02/03 06:15:19;;;;;;;19.58;8.20;;;103.30;1740.80;;;;;;5096389;28;20036;-59
2022/02/03 06:24:18;;;;;;;25.63;9.70;;;103.30;1766.40;;;;;;5096631;28;20035;-62
2022/02/03 06:29:47;;;;;;;44.97;19.20;;;103.30;1766.40;;;;;;5096642;28;20558;-59
2022/02/03 06:32:19;;;;;;;67.43;25.45;;;103.30;1715.20;;;;;;5108267;28;20134;-59
2022/02/03 06:34:51;;;;;;;81.03;28.08;;;103.30;1740.80;;;;;;5116463;28;20065;-58
2022/02/03 06:37:22;;;;;;;61.60;23.48;;;103.30;1740.80;;;;;;5116442;28;20024;-62
2022/02/03 06:39:52;;;;;;;52.67;19.50;;;103.30;1715.20;;;;;;5116197;28;20030;-61
2022/02/03 06:42:25;;;;;;;140.82;54.35;;;103.30;1766.40;;;;;;5116554;28;20066;-59
2022/02/03 06:45:04;;;;;;;218.90;82.78;;;103.30;1689.60;;;;;;5116321;28;20026;-60
2022/02/03 06:48:02;;;;;;;171.90;69.45;;;103.10;1766.40;;;;;;5116085;28;20081;-61
2022/02/03 06:50:45;;;;;;;154.18;59.10;;;103.30;1740.80;;;;;;5114528;28;20024;-61
2022/02/03 06:53:19;;;;;;;97.85;44.67;;;103.10;1766.40;;;;;;5116002;28;20031;-60
2022/02/03 06:55:58;;;;;;;95.20;39.50;;;103.20;1740.80;;;;;;5115577;28;20024;-60
2022/02/03 06:58:46;;;;;;;85.60;38.20;;;103.10;1766.40;;;;;;5097442;28;20093;-60
2022/02/03 07:01:27;;;;;;;76.95;36.88;;;103.20;1766.40;;;;;;5115911;28;20040;-59
2022/02/03 07:04:00;;;;;;;74.78;34.28;;;103.30;1740.80;;;;;;5115690;28;20043;-61
2022/02/03 07:06:33;;;;;;;64.93;29.67;;;103.30;1766.40;;;;;;5115647;28;20042;-61
2022/02/03 07:09:09;;;;;;;48.58;20.08;;;103.30;1740.80;;;;;;5115596;28;20028;-59
2022/02/03 07:11:42;;;;;;;33.45;15.05;;;103.30;1766.40;;;;;;5115580;28;20428;-59
2022/02/03 07:14:13;;;;;;;30.23;14.18;;;103.30;1766.40;;;;;;5114574;28;20023;-61
2022/02/03 07:16:52;;;;;;;40.72;17.15;;;103.30;1792.00;;;;;;5115686;28;20023;-62
2022/02/03 07:19:20;;;;;;;38.60;17.98;;;128.00;1817.60;;;;;;5115390;28;20046;-59
2022/02/03 07:21:52;;;;;;;37.03;16.52;;;128.00;1817.60;;;;;;5115270;28;20027;-63
2022/02/03 07:24:25;;;;;;;40.50;16.83;;;128.00;1817.60;;;;;;5115192;28;20024;-62
2022/02/03 07:26:56;;;;;;;37.85;15.35;;;128.10;1766.40;;;;;;5115186;28;20059;-62
2022/02/03 07:29:25;;;;;;;35.85;15.90;;;128.20;1792.00;;;;;;5115081;28;20011;-60
2022/02/03 07:31:55;;;;;;;35.05;15.02;;;128.30;1766.40;;;;;;5115063;28;20513;-59
2022/02/03 07:34:24;;;;;;;26.55;12.30;;;128.20;1792.00;;;;;;5115223;28;20028;-59
2022/02/03 07:36:57;;;;;;;27.95;11.60;;;128.30;1792.00;;;;;;5096418;28;20457;-62
2022/02/03 07:39:29;;;;;;;18.95;9.60;;;128.30;1792.00;;;;;;5115159;28;20058;-61
2022/02/03 07:42:00;;;;;;;20.83;8.45;;;128.40;1792.00;;;;;;5115002;28;20080;-62
2022/02/03 07:44:32;;;;;;;23.95;9.40;;;128.30;1766.40;;;;;;5115053;28;20457;-62
2022/02/03 07:47:03;;;;;;;18.13;8.73;;;128.40;1792.00;;;;;;5115027;28;20024;-59
2022/02/03 07:49:35;;;;;;;15.85;7.90;;;128.40;1792.00;;;;;;5114947;28;20461;-62
2022/02/03 07:52:08;;;;;;;15.90;7.80;;;128.50;1792.00;;;;;;5115053;28;20019;-60
2022/02/03 07:54:40;;;;;;;15.70;7.18;;;128.50;1817.60;;;;;;5114940;28;20430;-62
2022/02/03 07:57:10;;;;;;;18.35;8.07;;;128.60;1792.00;;;;;;5114649;28;20020;-62
2022/02/03 07:59:41;;;;;;;18.63;8.40;;;128.70;1817.60;;;;;;5114527;28;20055;-60
2022/02/03 08:02:13;;;;;;;23.92;9.50;;;128.70;1792.00;;;;;;5114590;28;20489;-62
2022/02/03 08:04:47;;;;;;;31.02;11.75;;;128.80;1817.60;;;;;;5114757;28;20019;-62
2022/02/03 08:07:18;;;;;;;21.50;9.77;;;128.90;1817.60;;;;;;5114679;28;20035;-61
2022/02/03 08:10:05;;;;;;;26.08;9.30;;;128.90;1817.60;;;;;;5114510;28;20035;-61
2022/02/03 08:12:38;;;;;;;24.25;12.00;;;153.60;1817.60;;;;;;5114449;28;20051;-60
2022/02/03 08:15:10;;;;;;;25.88;12.80;;;153.60;1792.00;;;;;;5114496;28;20119;-60
2022/02/03 08:17:42;;;;;;;19.13;9.70;;;153.60;1817.60;;;;;;5114627;28;20031;-62
2022/02/03 08:20:17;;;;;;;18.70;8.27;;;153.60;1792.00;;;;;;5114408;28;20037;-62
2022/02/03 08:25:45;;;;;;;15.00;6.78;;;153.70;1792.00;;;;;;5114248;28;20114;-61
2022/02/03 08:31:03;;;;;;;16.25;5.65;;;153.80;1792.00;;;;;;5114025;28;20016;-61
2022/02/03 08:33:34;;;;;;;15.77;6.47;;;153.90;1792.00;;;;;;5114275;28;20438;-62
2022/02/03 08:36:05;;;;;;;17.42;7.30;;;153.90;1792.00;;;;;;5114011;28;20054;-62
2022/02/03 08:41:13;;;;;;;23.77;8.95;;;154.00;1817.60;;;;;;5114079;28;20088;-61
2022/02/03 08:43:46;;;;;;;19.85;7.70;;;154.10;1792.00;;;;;;5114197;28;20031;-62
2022/02/03 08:46:18;;;;;;;21.73;7.05;;;154.10;1792.00;;;;;;5114054;28;20028;-61
2022/02/03 08:48:49;;;;;;;13.35;6.75;;;154.20;1792.00;;;;;;5113584;28;20055;-62
2022/02/03 08:51:21;;;;;;;14.40;5.70;;;154.30;1766.40;;;;;;5113849;28;20403;-62
2022/02/03 08:53:55;;;;;;;11.73;4.85;;;154.30;1766.40;;;;;;5114135;28;20020;-61
2022/02/03 08:56:35;;;;;;;20.63;5.55;;;154.40;1766.40;;;;;;5113834;28;20054;-60
2022/02/03 09:35:50;;;;;;;17.60;7.28;;;180.00;1689.60;;;;;;5114084;28;20153;-61
2022/02/03 09:38:32;;;;;;;11.02;6.03;;;180.10;1689.60;;;;;;5115848;28;20072;-61
2022/02/03 10:00:03;;;;;;;21.95;8.57;;;205.20;1638.40;;;;;;5106720;28;20509;-60
2022/02/03 10:02:32;;;;;;;23.95;8.48;;;205.20;1612.80;;;;;;5111325;28;20027;-60
2022/02/03 10:05:12;;;;;;;19.77;8.05;;;205.20;1612.80;;;;;;5108912;28;20030;-60
2022/02/03 10:07:39;;;;;;;17.88;6.90;;;205.30;1612.80;;;;;;5104708;28;20031;-61
2022/02/03 10:10:12;;;;;;;18.60;7.00;;;205.40;1612.80;;;;;;5109261;28;20474;-60
2022/02/03 10:12:41;;;;;;;25.30;7.65;;;205.40;1612.80;;;;;;5107455;28;20479;-59
2022/02/03 10:15:10;;;;;;;20.40;8.27;;;205.40;1612.80;;;;;;5103333;28;20032;-60
2022/02/03 10:17:43;;;;;;;18.67;7.10;;;205.50;1587.20;;;;;;5100702;28;20051;-60
2022/02/03 10:20:14;;;;;;;15.80;7.15;;;205.50;1587.20;;;;;;5106811;28;20040;-62
2022/02/03 10:22:48;;;;;;;22.55;9.52;;;205.60;1561.60;;;;;;5105717;28;20027;-60
2022/02/03 10:25:22;;;;;;;18.13;8.70;;;205.60;1561.60;;;;;;5103382;28;20036;-60
2022/02/03 10:27:59;;;;;;;15.45;7.63;;;205.60;1536.00;;;;;;5098865;28;20043;-61
2022/02/03 10:30:34;;;;;;;16.40;7.80;;;205.70;1536.00;;;;;;5102280;28;20027;-61
2022/02/03 10:33:01;;;;;;;16.95;7.35;;;205.60;1536.00;;;;;;5104875;28;20044;-60
2022/02/03 10:35:55;;;;;;;13.98;7.18;;;205.70;1510.40;;;;;;5100023;28;20027;-59
2022/02/03 10:44:11;;;;;;;14.57;6.10;;;205.70;1484.80;;;;;;5101371;28;20028;-60
2022/02/03 10:55:19;;;;;;;18.65;8.90;;;230.40;1484.80;;;;;;5101890;28;20043;-62
2022/02/03 11:06:11;;;;;;;28.52;12.90;;;230.50;1459.20;;;;;;5102823;28;20028;-61
2022/02/03 11:08:50;;;;;;;19.33;9.55;;;230.50;1459.20;;;;;;5103156;28;20381;-60
2022/02/03 11:11:33;;;;;;;21.67;8.77;;;230.50;1433.60;;;;;;5102731;28;20020;-59
2022/02/03 11:14:02;;;;;;;23.92;11.10;;;230.50;1459.20;;;;;;5096700;28;20038;-60
2022/02/03 11:16:29;;;;;;;18.45;9.45;;;230.50;1459.20;;;;;;5095451;28;20099;-60
2022/02/03 11:19:03;;;;;;;26.70;13.80;;;230.60;1459.20;;;;;;5095367;28;20055;-60
2022/02/03 11:21:40;;;;;;;35.80;15.27;;;230.60;1459.20;;;;;;5095095;28;20081;-60
2022/02/03 11:24:23;;;;;;;48.72;22.52;;;230.60;1459.20;;;;;;5094867;28;20036;-61
2022/02/03 11:40:47;;;;;;;16.92;7.10;;;230.60;1408.00;;;;;;5094727;28;20024;-61
2022/02/03 11:47:03;;;;;;;12.68;6.60;;;230.60;1382.40;;;;;;5094720;28;20035;-60
2022/02/03 11:50:00;;;;;;;11.00;5.80;;;230.60;1408.00;;;;;;5093964;28;20452;-63
2022/02/03 12:01:35;;;;;;;13.02;6.55;;;230.80;1382.40;;;;;;5103182;28;20504;-62
2022/02/03 12:15:50;;;;;;;34.28;13.73;;;230.70;1356.80;;;;;;5032555;28;20996;-60
2022/02/03 12:21:26;;;;;;;29.70;10.73;;;230.80;1356.80;;;;;;5032409;28;20203;-60
2022/02/03 12:24:20;;;;;;;32.17;11.10;;;230.80;1331.20;;;;;;5029692;28;20036;-60
2022/02/03 12:27:02;;;;;;;24.15;9.73;;;230.90;1331.20;;;;;;5029431;28;20046;-60
2022/02/03 12:29:50;;;;;;;19.80;8.30;;;230.90;1331.20;;;;;;5019672;28;20022;-60
2022/02/03 12:40:58;;;;;;;14.45;6.65;;;231.00;1280.00;;;;;;5051645;28;20052;-60
2022/02/03 12:43:38;;;;;;;11.50;5.80;;;231.10;1280.00;;;;;;5051273;28;20370;-61
2022/02/03 12:46:09;;;;;;;13.05;5.30;;;231.10;1280.00;;;;;;5077135;28;20060;-60
2022/02/03 12:48:44;;;;;;;19.08;7.22;;;231.10;1280.00;;;;;;5113837;28;20026;-60
2022/02/03 12:51:20;;;;;;;18.75;7.63;;;231.10;1254.40;;;;;;5114027;28;20098;-63
2022/02/03 12:53:47;;;;;;;21.92;8.05;;;231.10;1254.40;;;;;;5113748;28;20054;-61
2022/02/03 12:56:23;;;;;;;21.90;7.22;;;231.10;1254.40;;;;;;5113348;28;20042;-60
2022/02/03 12:59:02;;;;;;;14.85;6.20;;;231.10;1254.40;;;;;;5114005;28;20085;-63
2022/02/03 13:01:37;;;;;;;20.20;6.45;;;231.10;1228.80;;;;;;5095290;28;20461;-59
2022/02/03 13:04:18;;;;;;;14.52;6.13;;;231.10;1228.80;;;;;;5113923;28;20392;-60
2022/02/03 13:07:01;;;;;;;14.88;7.18;;;231.10;1254.40;;;;;;5113802;28;20401;-58
2022/02/03 13:09:52;;;;;;;15.60;7.30;;;231.10;1254.40;;;;;;5113867;28;20031;-58
2022/02/03 13:12:31;;;;;;;17.00;6.82;;;231.10;1228.80;;;;;;5115138;28;20044;-59
2022/02/03 13:15:04;;;;;;;17.70;7.25;;;231.10;1228.80;;;;;;5117729;28;20107;-57
2022/02/03 13:17:40;;;;;;;17.63;7.30;;;231.10;1228.80;;;;;;5118062;28;20028;-57
2022/02/03 13:20:19;;;;;;;20.50;8.23;;;231.00;1228.80;;;;;;5099460;28;20484;-57
2022/02/03 13:28:14;;;;;;;28.10;13.15;;;231.00;1254.40;;;;;;5117669;28;20102;-58
2022/02/03 13:30:58;;;;;;;26.40;13.25;;;231.00;1254.40;;;;;;5117893;28;20027;-57
2022/02/03 13:33:43;;;;;;;32.97;13.47;;;231.00;1254.40;;;;;;5118010;28;20043;-58
2022/02/03 13:36:20;;;;;;;25.55;12.18;;;231.00;1280.00;;;;;;5117677;28;20583;-57
2022/02/03 13:39:05;;;;;;;26.90;11.23;;;231.10;1254.40;;;;;;5117746;28;20031;-58
2022/02/03 13:41:41;;;;;;;19.83;9.77;;;231.00;1280.00;;;;;;5117447;28;20381;-57
2022/02/03 13:44:17;;;;;;;19.08;8.60;;;231.10;1254.40;;;;;;5117484;28;20104;-59
2022/02/03 13:46:48;;;;;;;21.17;9.05;;;231.10;1254.40;;;;;;5117568;28;20172;-57
2022/02/03 13:49:22;;;;;;;16.40;8.20;;;231.10;1254.40;;;;;;5117341;28;20020;-57
2022/02/03 13:52:10;;;;;;;16.52;8.13;;;231.10;1228.80;;;;;;5117463;28;20498;-58
2022/02/03 14:10:31;;;;;;;15.90;7.40;;;231.20;1228.80;;;;;;5117348;28;20027;-58
2022/02/03 14:20:34;;;;;;;14.18;7.63;;;231.10;1228.80;;;;;;5102011;28;20090;-59
2022/02/03 14:28:12;;;;;;;18.75;9.75;;;231.10;1254.40;;;;;;5104793;28;20137;-64
2022/02/03 14:30:44;;;;;;;15.65;9.63;;;231.10;1254.40;;;;;;5101404;28;20020;-61
2022/02/03 14:33:16;;;;;;;21.42;10.57;;;231.10;1254.40;;;;;;5104311;28;20036;-61
2022/02/03 14:35:47;;;;;;;27.70;12.85;;;231.10;1254.40;;;;;;5102079;28;20031;-63
2022/02/03 14:38:28;;;;;;;66.75;23.95;;;231.10;1254.40;;;;;;5096463;28;20405;-60
2022/02/03 14:41:08;;;;;;;143.93;39.88;;;231.10;1484.80;;;;;;5095664;28;20486;-58
2022/02/03 14:43:37;;;;;;;168.48;42.35;;;231.20;1331.20;;;;;;5095677;28;20470;-59
2022/02/03 14:46:13;;;;;;;109.45;35.10;;;231.10;1331.20;;;;;;5095813;28;20116;-58
2022/02/03 14:48:47;;;;;;;76.00;32.70;;;231.10;1305.60;;;;;;5095678;28;20034;-58
2022/02/03 14:51:30;;;;;;;85.30;36.30;;;231.10;1305.60;;;;;;5095593;28;20032;-59
2022/02/03 14:59:24;;;;;;;72.90;37.13;;;231.00;1305.60;;;;;;5095664;28;20051;-59
2022/02/03 15:01:55;;;;;;;68.82;34.10;;;230.90;1305.60;;;;;;5095489;28;20488;-59
2022/02/03 15:04:29;;;;;;;66.53;33.70;;;230.90;1331.20;;;;;;5095451;28;20032;-59
2022/02/03 15:07:04;;;;;;;65.32;33.72;;;230.90;1305.60;;;;;;5095536;28;20051;-59
2022/02/03 15:12:42;;;;;;;61.97;30.70;;;230.70;1331.20;;;;;;5095806;28;20424;-58
2022/02/03 15:15:13;;;;;;;68.72;33.80;;;230.70;1331.20;;;;;;5095131;28;20463;-58
2022/02/03 15:17:44;;;;;;;65.68;32.63;;;230.70;1331.20;;;;;;5095298;28;20087;-59
2022/02/03 15:20:16;;;;;;;59.55;33.30;;;230.70;1331.20;;;;;;5095183;28;20358;-59
2022/02/03 15:22:47;;;;;;;65.00;32.90;;;230.70;1331.20;;;;;;5095042;28;20116;-60
2022/02/03 15:25:19;;;;;;;72.97;34.78;;;230.60;1382.40;;;;;;5095175;28;20470;-59
2022/02/03 15:27:51;;;;;;;79.10;35.13;;;230.80;1408.00;;;;;;5095020;28;20073;-58
2022/02/03 15:30:21;;;;;;;83.53;41.38;;;230.80;1382.40;;;;;;5095223;28;20124;-60
2022/02/03 15:32:53;;;;;;;91.20;44.05;;;230.70;1382.40;;;;;;5094796;28;20127;-59
2022/02/03 15:35:42;;;;;;;105.53;46.88;;;230.70;1382.40;;;;;;5094360;28;20024;-58
2022/02/03 15:38:17;;;;;;;103.43;47.40;;;230.70;1382.40;;;;;;5094988;28;20080;-59
2022/02/03 15:40:51;;;;;;;125.07;49.90;;;230.60;1408.00;;;;;;5094614;28;20063;-59
2022/02/03 15:43:37;;;;;;;125.70;50.63;;;230.60;1408.00;;;;;;5094954;28;20028;-59
2022/02/03 15:46:11;;;;;;;139.57;54.30;;;230.60;1408.00;;;;;;5094754;28;20152;-59
2022/02/03 15:49:04;;;;;;;134.27;53.50;;;230.50;1408.00;;;;;;5094621;28;20462;-58
2022/02/03 15:57:21;;;;;;;154.43;69.95;;;230.40;1433.60;;;;;;5094919;28;20039;-59
2022/02/03 16:03:08;;;;;;;152.38;73.68;;;205.70;1459.20;;;;;;5094667;28;20039;-58
2022/02/03 16:17:03;;;;;;;174.50;77.38;;;205.50;1459.20;;;;;;5094760;28;20476;-57
2022/02/03 16:19:47;;;;;;;177.65;80.45;;;205.40;1459.20;;;;;;5094204;28;20024;-58
2022/02/03 16:22:41;;;;;;;169.82;77.72;;;205.30;1484.80;;;;;;5094038;28;20032;-60
2022/02/03 16:53:01;;;;;;;359.80;117.28;;;205.00;1510.40;;;;;;5093707;28;20123;-58
2022/02/03 16:55:36;;;;;;;349.80;113.30;;;205.00;1510.40;;;;;;5093803;28;20027;-59
2022/02/03 16:58:10;;;;;;;323.35;106.72;;;205.00;1510.40;;;;;;5093581;28;20024;-57
2022/02/03 17:00:44;;;;;;;285.63;96.38;;;204.80;1536.00;;;;;;5094341;28;20031;-58
2022/02/03 17:03:13;;;;;;;280.10;90.47;;;204.80;1536.00;;;;;;5093686;28;20039;-58
2022/02/03 17:05:47;;;;;;;250.88;87.05;;;204.80;1510.40;;;;;;5093811;28;20020;-57
2022/02/03 17:08:20;;;;;;;247.15;84.80;;;204.80;1536.00;;;;;;5093868;28;20035;-58
2022/02/03 17:10:52;;;;;;;202.60;77.65;;;204.80;1536.00;;;;;;5093725;28;20077;-58
2022/02/03 17:13:23;;;;;;;215.50;71.97;;;180.00;1536.00;;;;;;5093744;28;20373;-59
2022/02/03 17:15:55;;;;;;;186.93;70.93;;;180.00;1536.00;;;;;;5093725;28;20046;-59
2022/02/03 17:18:27;;;;;;;195.88;69.10;;;180.00;1536.00;;;;;;5093513;28;20111;-59
2022/02/03 17:20:59;;;;;;;209.25;76.43;;;179.90;1561.60;;;;;;5093160;28;20054;-58
2022/02/03 17:23:30;;;;;;;239.75;86.13;;;179.90;1561.60;;;;;;5093449;28;20058;-59
2022/02/03 17:52:18;;;;;;;318.80;132.40;;;179.50;1561.60;;;;;;5011839;28;20141;-58
2022/02/03 20:00:35;;;;;;;82.53;40.00;;;153.80;1638.40;;;;;;4935051;29;20392;-59
2022/02/03 20:05:02;;;;;;;119.00;55.28;;;153.80;1612.80;;;;;;4935081;29;20047;-59
2022/02/03 20:10:28;;;;;;;178.60;80.95;;;153.80;1638.40;;;;;;5035105;28;20035;-59
2022/02/03 20:13:00;;;;;;;166.30;74.78;;;153.80;1638.40;;;;;;5094256;28;20036;-57
2022/02/03 20:15:37;;;;;;;143.02;67.13;;;153.90;1638.40;;;;;;5094142;28;20016;-58
2022/02/03 20:18:11;;;;;;;90.63;45.53;;;153.80;1638.40;;;;;;5094158;28;20032;-59
2022/02/03 20:20:43;;;;;;;107.93;42.05;;;153.80;1638.40;;;;;;5085739;28;20487;-62
2022/02/03 20:23:19;;;;;;;143.50;55.88;;;153.90;1689.60;;;;;;5074797;28;20032;-62
2022/02/03 20:25:57;;;;;;;152.15;62.50;;;153.90;1638.40;;;;;;5093936;28;20434;-69
2022/02/03 20:28:28;;;;;;;118.07;54.47;;;153.70;1638.40;;;;;;5093466;28;20024;-61
2022/02/03 20:31:00;;;;;;;118.25;50.78;;;153.60;1664.00;;;;;;5093308;28;20020;-61
2022/02/03 20:33:32;;;;;;;100.55;49.95;;;153.60;1664.00;;;;;;5094025;28;20073;-61
2022/02/03 20:36:09;;;;;;;95.78;45.70;;;153.60;1664.00;;;;;;5093043;28;20023;-61
2022/02/03 20:38:40;;;;;;;115.82;57.72;;;153.60;1664.00;;;;;;5078053;28;20063;-60
2022/02/03 20:41:08;;;;;;;89.57;46.08;;;154.10;1971.20;;;;;;5093513;28;20044;-60
2022/02/03 20:43:39;;;;;;;77.72;41.00;;;179.20;1792.00;;;;;;5093165;28;20031;-60
2022/02/03 20:46:11;;;;;;;82.40;42.15;;;154.40;1689.60;;;;;;5093454;28;20036;-60
2022/02/03 20:48:49;;;;;;;77.10;39.60;;;154.30;1689.60;;;;;;5092990;28;20039;-59
2022/02/03 20:51:21;;;;;;;85.57;40.78;;;154.20;1638.40;;;;;;5093080;28;20362;-63
2022/02/03 20:53:59;;;;;;;77.80;40.78;;;154.20;1638.40;;;;;;5091079;28;20024;-63
2022/02/03 20:56:25;;;;;;;82.82;41.17;;;154.10;1638.40;;;;;;5092714;28;20047;-63
2022/02/03 20:58:54;;;;;;;77.53;38.13;;;154.00;1638.40;;;;;;5098545;28;20024;-64
2022/02/03 21:01:33;;;;;;;69.72;37.40;;;154.10;1638.40;;;;;;5102449;28;20063;-62
2022/02/03 21:04:07;;;;;;;66.97;35.85;;;153.90;1638.40;;;;;;5101182;28;20019;-58
2022/02/03 21:06:37;;;;;;;67.20;34.25;;;154.00;1638.40;;;;;;5099444;28;20016;-60
2022/02/03 21:09:08;;;;;;;64.18;31.83;;;153.90;1638.40;;;;;;5101403;28;20031;-59
2022/02/03 21:11:38;;;;;;;56.97;29.63;;;154.00;1638.40;;;;;;5099601;28;20070;-60
2022/02/03 21:14:07;;;;;;;58.38;28.52;;;154.00;1638.40;;;;;;5101229;28;20020;-60
2022/02/03 21:16:34;;;;;;;65.53;32.28;;;153.90;1638.40;;;;;;5091879;28;20035;-60
2022/02/03 21:19:01;;;;;;;65.97;36.55;;;154.00;1612.80;;;;;;5081931;28;20035;-62
2022/02/03 21:21:27;;;;;;;70.25;36.72;;;154.00;1638.40;;;;;;5091721;28;20054;-63
2022/02/03 21:23:56;;;;;;;74.22;39.00;;;153.90;1638.40;;;;;;5091677;28;20029;-64
2022/02/03 21:26:31;;;;;;;85.50;41.20;;;153.90;1638.40;;;;;;5091609;28;20051;-60
2022/02/03 21:28:58;;;;;;;81.50;43.95;;;153.90;1638.40;;;;;;5090426;28;20024;-61
2022/02/03 21:31:26;;;;;;;89.78;46.03;;;153.90;1612.80;;;;;;5091791;28;20048;-61
2022/02/03 21:33:56;;;;;;;89.07;46.60;;;153.90;1638.40;;;;;;5091303;28;20040;-59
2022/02/03 21:36:33;;;;;;;84.38;44.17;;;153.90;1638.40;;;;;;5095765;28;20020;-63
2022/02/03 21:38:59;;;;;;;83.53;44.35;;;153.90;1638.40;;;;;;5100977;28;20024;-62
2022/02/03 21:41:25;;;;;;;82.43;42.75;;;153.90;1638.40;;;;;;5106087;28;20035;-62
2022/02/03 21:43:52;;;;;;;79.55;40.58;;;153.80;1638.40;;;;;;5106708;28;20020;-60
2022/02/03 21:46:22;;;;;;;77.20;39.88;;;153.80;1638.40;;;;;;5101911;28;20554;-60
2022/02/03 21:48:50;;;;;;;82.25;41.10;;;153.80;1638.40;;;;;;5105399;28;20015;-58
2022/02/03 21:51:22;;;;;;;78.72;42.97;;;153.70;1664.00;;;;;;5106757;28;20042;-58
2022/02/03 21:53:52;;;;;;;78.18;42.42;;;153.70;1638.40;;;;;;5106267;28;20103;-63
2022/02/03 21:56:23;;;;;;;79.00;43.30;;;153.70;1638.40;;;;;;5102046;28;20024;-59
2022/02/03 21:58:51;;;;;;;89.90;45.65;;;153.70;1664.00;;;;;;5104858;28;20035;-59
2022/02/03 22:01:21;;;;;;;101.05;48.53;;;153.70;1638.40;;;;;;5101508;28;20426;-63
2022/02/03 22:03:53;;;;;;;103.90;49.33;;;153.70;1638.40;;;;;;5105063;28;20016;-58
2022/02/03 22:06:20;;;;;;;97.90;49.70;;;153.70;1638.40;;;;;;5102104;28;20049;-63
2022/02/03 22:08:49;;;;;;;107.45;49.70;;;153.60;1638.40;;;;;;5105238;28;20011;-60
2022/02/03 22:11:20;;;;;;;92.20;48.40;;;153.60;1664.00;;;;;;5105763;28;20035;-61
2022/02/03 22:13:47;;;;;;;93.80;47.70;;;153.60;1638.40;;;;;;5104527;28;20080;-61
2022/02/03 22:16:23;;;;;;;92.50;46.53;;;153.60;1664.00;;;;;;5104365;28;20343;-63
2022/02/03 22:18:52;;;;;;;103.65;50.78;;;153.60;1638.40;;;;;;5104029;28;20469;-57
2022/02/03 22:45:21;;;;;;;60.38;31.98;;;128.90;1664.00;;;;;;5103925;28;20034;-62
2022/02/03 22:50:18;;;;;;;54.30;28.80;;;128.90;1664.00;;;;;;5101713;28;20031;-59
2022/02/03 22:52:50;;;;;;;50.03;27.42;;;128.80;1664.00;;;;;;5112518;28;20077;-63
2022/02/03 22:55:20;;;;;;;50.65;26.70;;;128.80;1664.00;;;;;;5110421;28;20116;-60
2022/02/03 22:58:07;;;;;;;54.38;29.45;;;128.80;1664.00;;;;;;5104787;28;20107;-61
2022/02/03 23:00:58;;;;;;;61.80;32.08;;;128.80;1664.00;;;;;;5105514;28;20037;-65
2022/02/03 23:03:29;;;;;;;55.78;30.20;;;128.70;1664.00;;;;;;5103377;28;20107;-60
2022/02/03 23:05:59;;;;;;;45.55;24.85;;;128.80;1664.00;;;;;;5100550;28;20080;-65
2022/02/03 23:19:15;;;;;;;44.08;25.08;;;128.80;1664.00;;;;;;5104873;28;20039;-62
2022/02/03 23:24:11;;;;;;;31.80;17.45;;;128.80;1638.40;;;;;;5103055;28;20091;-61
2022/02/03 23:26:39;;;;;;;30.02;15.55;;;128.70;1638.40;;;;;;5104839;28;20457;-62
2022/02/03 23:29:10;;;;;;;25.13;13.13;;;128.80;1638.40;;;;;;5103095;28;20476;-62
2022/02/03 23:31:50;;;;;;;20.48;12.07;;;128.70;1638.40;;;;;;5100360;28;20050;-61
2022/02/03 23:34:19;;;;;;;21.60;12.75;;;128.70;1664.00;;;;;;5100355;28;20024;-60
2022/02/03 23:36:45;;;;;;;19.25;10.85;;;128.70;1638.40;;;;;;5103397;28;20366;-60
2022/02/03 23:39:27;;;;;;;20.17;12.52;;;128.60;1664.00;;;;;;5099932;28;20024;-62
